Nome, AK

3:47 AM AKST on February 14, 2016 (GMT -0900)
BA Airport | | Change Station
CLOSE
Current Station
Personal Weather Station
Location: Nome, AK
Elevation: 37 ft
Nearby Weather Stations

Elev 37 ft 64.51 °N, 165.45 °W | Updated 2 minutes ago

Clear
Clear
-7.6 °F
Feels Like -22 °F
N
7.0
Wind Variable Wind from NW
Gusts 8.0 mph

Today
High -- | Low -- °F
--% Chance of Precip.
Yesterday
High -- | Low -- °F
Precip. -- in
Pressure 29.49 in
Visibility 10.0 miles
Clouds Clear
Windchill -22 °F
Dew Point -11 °F
Humidity 84%
Rainfall 0.00 in
Snow Depth Not available.
10:02 AM 6:30 PM
Waxing Crescent, 41% visible
METAR PAOM 141053Z 00000KT 10SM CLR M24/M27 A2949 RMK SLP986 T12441267 VIA AUTODIAL
Pressure 29.49 in
Visibility 10.0 miles
Clouds Clear
Windchill -22 °F
Dew Point -11 °F
Humidity 84%
Rainfall 0.00 in
Snow Depth Not available.
10:02 AM 6:30 PM
Waxing Crescent, 41% visible
METAR PAOM 141053Z 00000KT 10SM CLR M24/M27 A2949 RMK SLP986 T12441267 VIA AUTODIAL

10-Day Weather Forecast

Almanac

Astronomy

Feb. 14, 2016 Rise Set
Actual Time
Civil Twilight
Nautical Twilight
Astronomical Twilight
Moon
Length of Visible Light
Length of Day
Tomorrow will be .
, % of the Moon is Illuminated

Today's Extremes

State Highs State Lows

Community

WunderPhotos

Upload Photos

1,892,775 photos uploaded!

WunderBlog® & News

Nearby

Air Quality

  Air Quality AQ Index Pollutant
Not available.

Snow Depth

Station Depth Elevation

Earthquake Activity

City Distance Mag. Time & Date
Minimum magnitude displayed is 2.5.

Coastal Water Temperatures

Place Temperature

Stations

Nearby Weather Stations

Station Location Temp. Windchill Dew Point Humidity Wind Precip. Elev Updated Type
                   

Watches & Warnings

There are currently no watches in effect.